Suburban Heights, Illinois
Current Conditions -  °F | °C
As of 4:15 PM on Thursday 27 Nov 2014 (Local Time) from KENL Reporting Station
Clear Clear  
Wind Chill: 21°   Ceiling: Unl
Heat Index: 29°   Visibility: 10mi
Dew Point: 21°   Wind: 8mph
Humidity: 72%   Direction: 330°NNW
Pressure: 30.45"   Gusts: NA
Location:  38.5134°N, 89.1673°W
Report Text: KENL 272215Z AUTO 33007KT 10SM CLR M02/M06 A3045 RMK AO2 T10181063
Loading
Personal Weather Stations






























Interactive Weather Map New forecast layout! Learn more

10-Day Weather Forecast

Advertisements
Track Severe Weather on mobile